createdAt,value
2018-11-14T00:00:43.400Z,52
2018-11-14T00:01:43.624Z,51.98
2018-11-14T00:02:43.443Z,52.01
2018-11-14T00:03:43.480Z,51.99
2018-11-14T00:04:43.427Z,52.01
2018-11-14T00:05:44.180Z,52.01
2018-11-14T00:06:43.459Z,52.05
2018-11-14T00:07:43.444Z,52
2018-11-14T00:08:43.675Z,51.96
2018-11-14T00:09:43.725Z,52.01
2018-11-14T00:10:43.678Z,52.05
2018-11-14T00:11:43.663Z,51.99
2018-11-14T00:12:43.609Z,51.96
2018-11-14T00:13:43.430Z,51.98
2018-11-14T00:14:43.608Z,52
2018-11-14T00:15:43.502Z,52.08
2018-11-14T00:16:43.478Z,52
2018-11-14T00:17:43.619Z,51.97
2018-11-14T00:18:43.558Z,52.01
2018-11-14T00:19:43.616Z,52.02
2018-11-14T00:20:43.741Z,52.05
2018-11-14T00:21:43.763Z,52
2018-11-14T00:22:43.369Z,52.07
2018-11-14T00:23:43.572Z,52.08
2018-11-14T00:24:44.328Z,51.98
2018-11-14T00:25:43.820Z,52.04
2018-11-14T00:26:43.422Z,52.03
2018-11-14T00:27:43.662Z,52.04
2018-11-14T00:28:43.593Z,51.99
2018-11-14T00:29:43.567Z,52.02
2018-11-14T00:30:43.709Z,52.06
2018-11-14T00:31:43.527Z,52.05
2018-11-14T00:32:43.805Z,52
2018-11-14T00:33:43.658Z,52.05
2018-11-14T00:34:44.252Z,52.06
2018-11-14T00:35:44.021Z,52
2018-11-14T00:36:43.870Z,52
2018-11-14T00:37:43.555Z,52.02
2018-11-14T00:38:43.462Z,52.02
2018-11-14T00:39:44.178Z,52.1
2018-11-14T00:40:43.372Z,52.06
2018-11-14T00:41:43.374Z,51.95
2018-11-14T00:42:43.912Z,52.05
2018-11-14T00:43:43.873Z,52
2018-11-14T00:44:43.610Z,51.99
2018-11-14T00:45:43.735Z,51.98
2018-11-14T00:46:43.679Z,52.07
2018-11-14T00:47:43.708Z,52.07
2018-11-14T00:48:43.830Z,52.02
2018-11-14T00:49:43.766Z,52
2018-11-14T00:50:43.294Z,51.96
2018-11-14T00:51:43.383Z,52
2018-11-14T00:52:43.757Z,51.96
2018-11-14T00:53:43.385Z,52
2018-11-14T00:54:43.780Z,52
2018-11-14T00:55:43.360Z,52.02
2018-11-14T00:56:43.686Z,51.94
2018-11-14T00:57:43.640Z,52.01
2018-11-14T00:58:43.683Z,52
2018-11-14T00:59:43.292Z,51.96
2018-11-14T01:00:44.131Z,51.93
2018-11-14T01:01:43.842Z,51.98
2018-11-14T01:02:43.606Z,51.94
2018-11-14T01:03:43.839Z,51.95
2018-11-14T01:04:43.338Z,51.97
2018-11-14T01:05:43.748Z,51.95
2018-11-14T01:06:43.667Z,52.05
2018-11-14T01:07:43.462Z,52.01
2018-11-14T01:08:43.290Z,51.96
2018-11-14T01:09:43.803Z,51.98
2018-11-14T01:10:43.579Z,51.97
2018-11-14T01:11:43.888Z,51.93
2018-11-14T01:12:43.691Z,51.96
2018-11-14T01:13:43.355Z,52.01
2018-11-14T01:14:43.747Z,51.97
2018-11-14T01:15:44.053Z,52.05
2018-11-14T01:16:43.620Z,51.95
2018-11-14T01:17:43.505Z,52.01
2018-11-14T01:18:43.715Z,51.98
2018-11-14T01:19:43.328Z,51.99
2018-11-14T01:20:43.474Z,52.04
2018-11-14T01:21:44.091Z,52.01
2018-11-14T01:22:43.666Z,51.96
2018-11-14T01:23:44.175Z,51.94
2018-11-14T01:24:43.359Z,51.97
2018-11-14T01:25:43.607Z,51.94
2018-11-14T01:26:43.318Z,51.95
2018-11-14T01:27:43.627Z,51.99
2018-11-14T01:28:43.292Z,51.94
2018-11-14T01:29:43.911Z,51.93
2018-11-14T01:30:43.379Z,51.98
2018-11-14T01:31:43.455Z,51.95
2018-11-14T01:32:43.677Z,51.91
2018-11-14T01:33:43.608Z,51.91
2018-11-14T01:34:43.564Z,51.92
2018-11-14T01:35:43.465Z,51.9
2018-11-14T01:36:43.804Z,52.01
2018-11-14T01:37:43.483Z,52
2018-11-14T01:38:43.598Z,51.94
2018-11-14T01:39:43.364Z,51.96
2018-11-14T01:40:43.597Z,52
2018-11-14T01:41:43.369Z,51.95
2018-11-14T01:42:43.609Z,51.96
2018-11-14T01:43:43.261Z,51.95
2018-11-14T01:44:43.373Z,51.93
2018-11-14T01:45:43.347Z,51.91
2018-11-14T01:46:44.037Z,51.92
2018-11-14T01:47:43.381Z,52.01
2018-11-14T01:48:43.422Z,51.96
2018-11-14T01:49:43.657Z,51.95
2018-11-14T01:50:43.501Z,52.02
2018-11-14T01:51:44.308Z,51.97
2018-11-14T01:52:43.440Z,51.95
2018-11-14T01:53:43.600Z,51.95
2018-11-14T01:54:43.330Z,51.95
2018-11-14T01:55:43.515Z,51.95
2018-11-14T01:56:43.393Z,51.96
2018-11-14T01:57:43.376Z,51.93
2018-11-14T01:58:43.591Z,51.98
2018-11-14T01:59:43.726Z,51.96
2018-11-14T02:00:43.762Z,52
2018-11-14T02:01:43.512Z,51.96
2018-11-14T02:02:43.365Z,51.93
2018-11-14T02:03:43.700Z,51.99
2018-11-14T02:04:43.756Z,51.89
2018-11-14T02:05:43.693Z,51.97
2018-11-14T02:06:43.789Z,51.96
2018-11-14T02:07:43.366Z,51.96
2018-11-14T02:08:43.377Z,51.99
2018-11-14T02:09:43.321Z,51.95
2018-11-14T02:10:43.834Z,51.99
2018-11-14T02:11:43.254Z,52.03
2018-11-14T02:12:43.684Z,51.96
2018-11-14T02:13:43.484Z,51.97
2018-11-14T02:14:43.433Z,51.95
2018-11-14T02:15:43.761Z,52.02
2018-11-14T02:16:43.637Z,51.93
2018-11-14T02:17:43.642Z,51.98
2018-11-14T02:18:43.442Z,51.92
2018-11-14T02:19:43.759Z,51.93
2018-11-14T02:20:43.374Z,51.94
2018-11-14T02:21:43.618Z,51.98
2018-11-14T02:22:43.404Z,51.92
2018-11-14T02:23:44.095Z,51.97
2018-11-14T02:24:43.714Z,51.97
2018-11-14T02:25:43.393Z,51.95
2018-11-14T02:26:43.552Z,51.91
2018-11-14T02:27:43.339Z,51.97
2018-11-14T02:28:43.459Z,51.95
2018-11-14T02:29:43.729Z,51.9
2018-11-14T02:30:43.400Z,51.92
2018-11-14T02:31:43.418Z,51.92
2018-11-14T02:32:43.376Z,51.92
2018-11-14T02:33:43.752Z,51.92
2018-11-14T02:34:43.562Z,51.94
2018-11-14T02:35:43.850Z,51.91
2018-11-14T02:36:43.799Z,51.92
2018-11-14T02:37:43.499Z,51.93
2018-11-14T02:38:43.379Z,51.97
2018-11-14T02:39:44.164Z,51.95
2018-11-14T02:40:43.602Z,51.89
2018-11-14T02:41:43.466Z,51.93
2018-11-14T02:42:43.866Z,51.91
2018-11-14T02:43:43.741Z,51.92
2018-11-14T02:44:43.594Z,51.97
2018-11-14T02:45:43.299Z,51.87
2018-11-14T02:46:43.481Z,51.91
2018-11-14T02:47:43.798Z,51.94
2018-11-14T02:48:44.003Z,51.92
2018-11-14T02:49:43.296Z,51.94
2018-11-14T02:50:43.363Z,51.9
2018-11-14T02:51:43.327Z,51.98
2018-11-14T02:52:43.663Z,51.94
2018-11-14T02:53:43.585Z,51.94
2018-11-14T02:54:44.341Z,51.96
2018-11-14T02:55:43.482Z,51.9
2018-11-14T02:56:43.500Z,51.92
2018-11-14T02:57:43.663Z,51.97
2018-11-14T02:58:43.325Z,51.9
2018-11-14T02:59:43.395Z,51.94
2018-11-14T03:00:43.219Z,51.89
2018-11-14T03:01:43.335Z,51.95
2018-11-14T03:02:43.642Z,51.93
2018-11-14T03:03:43.440Z,51.92
2018-11-14T03:04:43.507Z,51.97
2018-11-14T03:05:43.461Z,51.89
2018-11-14T03:06:43.421Z,51.93
2018-11-14T03:07:43.478Z,51.93
2018-11-14T03:08:43.483Z,51.91
2018-11-14T03:09:43.322Z,51.91
2018-11-14T03:10:43.189Z,51.93
2018-11-14T03:11:43.354Z,51.92
2018-11-14T03:12:43.488Z,51.93
2018-11-14T03:13:43.281Z,51.93
2018-11-14T03:14:43.406Z,51.96
2018-11-14T03:15:43.332Z,51.93
2018-11-14T03:16:43.964Z,51.9
2018-11-14T03:17:43.449Z,51.93
2018-11-14T03:18:43.450Z,51.9
2018-11-14T03:19:43.213Z,51.9
2018-11-14T03:20:43.400Z,51.91
2018-11-14T03:21:43.701Z,51.94
2018-11-14T03:22:43.573Z,51.94
2018-11-14T03:23:43.714Z,51.94
2018-11-14T03:24:43.242Z,51.89
2018-11-14T03:25:43.332Z,51.89
2018-11-14T03:26:43.494Z,51.91
2018-11-14T03:27:43.657Z,51.92
2018-11-14T03:28:43.276Z,51.93
2018-11-14T03:29:43.710Z,51.89
2018-11-14T03:30:43.658Z,51.94
2018-11-14T03:31:43.317Z,51.94
2018-11-14T03:32:43.572Z,51.91
2018-11-14T03:33:43.393Z,51.93
2018-11-14T03:34:43.751Z,51.99
2018-11-14T03:35:43.340Z,51.89
2018-11-14T03:36:43.404Z,51.92
2018-11-14T03:37:43.284Z,51.9
2018-11-14T03:38:43.377Z,51.94
2018-11-14T03:39:43.773Z,51.9
2018-11-14T03:40:43.455Z,51.96
2018-11-14T03:41:43.776Z,51.95
2018-11-14T03:42:43.673Z,51.95
2018-11-14T03:43:43.425Z,51.89
2018-11-14T03:44:43.437Z,51.91
2018-11-14T03:45:44.082Z,51.9
2018-11-14T03:46:43.719Z,51.95
2018-11-14T03:47:43.806Z,51.94
2018-11-14T03:48:43.292Z,51.94
2018-11-14T03:49:43.692Z,51.9
2018-11-14T03:50:43.579Z,51.89
2018-11-14T03:51:43.341Z,51.99
2018-11-14T03:52:43.511Z,51.95
2018-11-14T03:53:43.628Z,51.88
2018-11-14T03:54:43.459Z,51.96
2018-11-14T03:55:43.317Z,51.93
2018-11-14T03:56:43.641Z,51.91
2018-11-14T03:57:43.312Z,51.94
2018-11-14T03:58:43.346Z,51.91
2018-11-14T03:59:43.290Z,51.84
2018-11-14T04:00:43.226Z,51.89
2018-11-14T04:01:43.655Z,51.92
2018-11-14T04:02:43.687Z,51.96
2018-11-14T04:03:43.662Z,51.89
2018-11-14T04:04:43.293Z,51.92
2018-11-14T04:05:43.692Z,51.89
2018-11-14T04:06:43.409Z,51.92
2018-11-14T04:07:43.452Z,51.91
2018-11-14T04:08:43.485Z,51.91
2018-11-14T04:09:43.249Z,51.93
2018-11-14T04:10:43.335Z,51.91
2018-11-14T04:11:43.838Z,51.95
2018-11-14T04:12:43.582Z,51.9
2018-11-14T04:13:43.382Z,51.89
2018-11-14T04:14:43.875Z,51.92
2018-11-14T04:15:43.428Z,51.93
2018-11-14T04:16:43.419Z,51.91
2018-11-14T04:17:43.386Z,51.95
2018-11-14T04:18:43.618Z,51.97
2018-11-14T04:19:43.287Z,51.96
2018-11-14T04:20:43.352Z,51.92
2018-11-14T04:21:43.238Z,51.9
2018-11-14T04:22:43.383Z,51.89
2018-11-14T04:23:43.404Z,51.95
2018-11-14T04:24:43.366Z,51.94
2018-11-14T04:25:43.857Z,51.94
2018-11-14T04:26:43.393Z,51.91
2018-11-14T04:27:43.327Z,51.96
2018-11-14T04:28:43.358Z,51.91
2018-11-14T04:29:43.782Z,51.92
2018-11-14T04:30:43.303Z,51.9
2018-11-14T04:31:43.696Z,51.98
2018-11-14T04:32:43.224Z,51.94
2018-11-14T04:33:43.384Z,51.93
2018-11-14T04:34:43.545Z,51.91
2018-11-14T04:35:43.338Z,51.94
2018-11-14T04:36:43.524Z,51.93
2018-11-14T04:37:43.295Z,51.87
2018-11-14T04:38:43.472Z,51.94
2018-11-14T04:39:43.378Z,51.92
2018-11-14T04:40:43.620Z,51.93
2018-11-14T04:41:43.260Z,51.88
2018-11-14T04:42:43.323Z,51.87
2018-11-14T04:43:43.262Z,51.87
2018-11-14T04:44:43.454Z,51.87
2018-11-14T04:45:43.282Z,51.87
2018-11-14T04:46:43.341Z,51.85
2018-11-14T04:47:43.462Z,51.84
2018-11-14T04:48:43.372Z,51.84
2018-11-14T04:49:43.407Z,51.89
2018-11-14T04:50:43.278Z,51.85
2018-11-14T04:51:43.650Z,51.85
2018-11-14T04:52:43.741Z,51.84
2018-11-14T04:53:43.359Z,51.91
2018-11-14T04:54:43.233Z,51.89
2018-11-14T04:55:43.687Z,51.89
2018-11-14T04:56:43.495Z,51.9
2018-11-14T04:57:43.725Z,51.91
2018-11-14T04:58:43.275Z,51.91
2018-11-14T04:59:43.389Z,51.9
2018-11-14T05:00:43.580Z,51.95
2018-11-14T05:01:43.594Z,51.91
2018-11-14T05:02:43.687Z,51.91
2018-11-14T05:03:43.258Z,51.87
2018-11-14T05:04:43.607Z,51.9
2018-11-14T05:05:43.774Z,51.9
2018-11-14T05:06:43.616Z,51.9
2018-11-14T05:07:43.441Z,51.93
2018-11-14T05:08:43.630Z,51.86
2018-11-14T05:09:43.653Z,51.83
2018-11-14T05:10:43.773Z,51.89
2018-11-14T05:11:43.670Z,51.87
2018-11-14T05:12:43.590Z,51.84
2018-11-14T05:13:43.523Z,51.89
2018-11-14T05:14:43.304Z,51.88
2018-11-14T05:15:43.368Z,51.83
2018-11-14T05:16:43.273Z,51.9
2018-11-14T05:17:43.375Z,51.89
2018-11-14T05:18:43.311Z,51.89
2018-11-14T05:19:43.437Z,51.91
2018-11-14T05:20:43.281Z,51.86
2018-11-14T05:21:43.402Z,51.9
2018-11-14T05:22:43.461Z,51.92
2018-11-14T05:23:43.339Z,51.85
2018-11-14T05:24:43.941Z,51.99
2018-11-14T05:25:43.278Z,51.89
2018-11-14T05:26:43.411Z,51.87
2018-11-14T05:27:43.220Z,51.89
2018-11-14T05:28:43.389Z,51.89
2018-11-14T05:29:43.324Z,51.91
2018-11-14T05:30:43.373Z,51.87
2018-11-14T05:31:43.768Z,51.88
2018-11-14T05:32:43.297Z,51.83
2018-11-14T05:33:43.756Z,51.91
2018-11-14T05:34:43.329Z,51.92
2018-11-14T05:35:43.743Z,51.87
2018-11-14T05:36:43.570Z,51.89
2018-11-14T05:37:43.241Z,51.86
2018-11-14T05:38:43.763Z,51.9
2018-11-14T05:39:43.753Z,51.86
2018-11-14T05:40:43.510Z,51.85
2018-11-14T05:41:43.325Z,51.8
2018-11-14T05:42:43.411Z,51.83
2018-11-14T05:43:43.514Z,51.82
2018-11-14T05:44:43.921Z,51.83
2018-11-14T05:45:43.332Z,51.84
2018-11-14T05:46:43.446Z,51.86
2018-11-14T05:47:43.423Z,51.84
2018-11-14T05:48:43.343Z,51.84
2018-11-14T05:49:43.484Z,51.81
2018-11-14T05:50:43.425Z,51.78
2018-11-14T05:51:43.758Z,51.78
2018-11-14T05:52:43.395Z,51.8
2018-11-14T05:53:43.802Z,51.83
2018-11-14T05:54:43.377Z,51.76
2018-11-14T05:55:43.848Z,51.82
2018-11-14T05:56:43.579Z,51.83
2018-11-14T05:57:43.350Z,51.75
2018-11-14T05:58:43.591Z,51.78
2018-11-14T05:59:43.282Z,51.83
2018-11-14T06:00:43.856Z,51.81
2018-11-14T06:01:43.415Z,51.77
2018-11-14T06:02:43.385Z,51.75
2018-11-14T06:03:43.665Z,51.78
2018-11-14T06:04:43.621Z,51.77
2018-11-14T06:05:43.419Z,51.82
2018-11-14T06:06:43.313Z,51.78
2018-11-14T06:07:43.758Z,51.74
2018-11-14T06:08:43.352Z,51.8
2018-11-14T06:09:43.238Z,51.74
2018-11-14T06:10:43.286Z,51.73
2018-11-14T06:11:43.409Z,51.76
2018-11-14T06:12:43.319Z,51.77
2018-11-14T06:13:43.372Z,51.75
2018-11-14T06:14:43.372Z,51.74
2018-11-14T06:15:43.482Z,51.74
2018-11-14T06:16:43.339Z,51.78
2018-11-14T06:17:43.337Z,51.83
2018-11-14T06:18:43.316Z,51.81
2018-11-14T06:19:43.414Z,51.81
2018-11-14T06:20:43.774Z,51.7
2018-11-14T06:21:43.633Z,51.73
2018-11-14T06:22:43.644Z,51.73
2018-11-14T06:23:43.585Z,51.7
2018-11-14T06:24:43.371Z,51.69
2018-11-14T06:25:43.286Z,51.73
2018-11-14T06:26:43.328Z,51.74
2018-11-14T06:27:43.606Z,51.71
2018-11-14T06:28:43.490Z,51.69
2018-11-14T06:29:43.473Z,51.69
2018-11-14T06:30:43.814Z,51.69
2018-11-14T06:31:43.717Z,51.73
2018-11-14T06:32:43.200Z,51.66
2018-11-14T06:33:43.808Z,51.76
2018-11-14T06:34:43.427Z,51.74
2018-11-14T06:35:43.921Z,51.76
2018-11-14T06:36:43.417Z,51.73
2018-11-14T06:37:43.508Z,51.73
2018-11-14T06:38:43.323Z,51.73
2018-11-14T06:39:43.484Z,51.72
2018-11-14T06:40:43.334Z,51.72
2018-11-14T06:41:43.734Z,51.73
2018-11-14T06:42:43.449Z,51.74
2018-11-14T06:43:43.385Z,51.75
2018-11-14T06:44:43.395Z,51.67
2018-11-14T06:45:43.433Z,51.65
2018-11-14T06:46:43.412Z,51.66
2018-11-14T06:47:43.691Z,51.67
2018-11-14T06:48:43.445Z,51.65
2018-11-14T06:49:43.328Z,51.61
2018-11-14T06:50:43.688Z,51.6
2018-11-14T06:51:43.389Z,51.63
2018-11-14T06:52:43.736Z,51.58
2018-11-14T06:53:43.222Z,51.63
2018-11-14T06:54:43.429Z,51.58
2018-11-14T06:55:43.316Z,51.63
2018-11-14T06:56:43.685Z,51.62
2018-11-14T06:57:43.387Z,51.56
2018-11-14T06:58:44.004Z,51.58
2018-11-14T06:59:43.287Z,51.6
2018-11-14T07:00:43.593Z,51.6
2018-11-14T07:01:43.530Z,51.62
2018-11-14T07:02:43.266Z,51.58
2018-11-14T07:03:43.310Z,51.62
2018-11-14T07:04:43.430Z,51.58
2018-11-14T07:05:43.682Z,51.51
2018-11-14T07:06:43.401Z,51.54
2018-11-14T07:07:43.406Z,51.57
2018-11-14T07:08:43.270Z,51.54
2018-11-14T07:09:43.510Z,51.53
2018-11-14T07:10:43.401Z,51.55
2018-11-14T07:11:43.570Z,51.56
2018-11-14T07:12:44.260Z,51.56
2018-11-14T07:13:43.231Z,51.58
2018-11-14T07:14:43.662Z,51.55
2018-11-14T07:15:43.683Z,51.57
2018-11-14T07:16:43.271Z,51.54
2018-11-14T07:17:43.370Z,51.53
2018-11-14T07:18:43.612Z,51.5
2018-11-14T07:19:43.426Z,51.52
2018-11-14T07:20:43.469Z,51.57
2018-11-14T07:21:43.429Z,51.55
2018-11-14T07:22:43.436Z,51.56
2018-11-14T07:23:43.443Z,51.51
2018-11-14T07:24:44.106Z,51.52
2018-11-14T07:25:43.304Z,51.53
2018-11-14T07:26:43.075Z,51.52
2018-11-14T07:27:43.401Z,51.54
2018-11-14T07:28:43.358Z,51.51
2018-11-14T07:29:43.581Z,51.47
2018-11-14T07:30:43.690Z,51.51
2018-11-14T07:31:43.307Z,51.52
2018-11-14T07:32:43.769Z,51.54
2018-11-14T07:33:43.913Z,51.51
2018-11-14T07:34:43.422Z,51.51
2018-11-14T07:35:43.116Z,51.52
2018-11-14T07:36:43.382Z,51.47
2018-11-14T07:37:43.569Z,51.5
2018-11-14T07:38:43.348Z,51.52
2018-11-14T07:39:43.432Z,51.53
2018-11-14T07:40:43.615Z,51.54
2018-11-14T07:41:43.263Z,51.48
2018-11-14T07:42:43.305Z,51.49
2018-11-14T07:43:44.166Z,51.5
2018-11-14T07:44:43.167Z,51.49
2018-11-14T07:45:43.209Z,51.47
2018-11-14T07:46:43.480Z,51.61
2018-11-14T07:47:43.259Z,51.55
2018-11-14T07:48:43.291Z,51.6
2018-11-14T07:49:43.272Z,51.51
2018-11-14T07:50:43.329Z,51.6
2018-11-14T07:51:43.357Z,51.59
2018-11-14T07:52:43.232Z,51.6
2018-11-14T07:53:43.152Z,51.65
2018-11-14T07:54:43.502Z,51.71
2018-11-14T07:55:43.272Z,51.72
2018-11-14T07:56:43.283Z,51.75
2018-11-14T07:57:43.314Z,51.77
2018-11-14T07:58:43.260Z,51.78
2018-11-14T07:59:43.281Z,51.8
2018-11-14T08:00:43.904Z,51.81
2018-11-14T08:01:43.286Z,51.82
2018-11-14T08:02:43.110Z,51.78
2018-11-14T08:03:43.501Z,51.81
2018-11-14T08:04:43.351Z,51.78
2018-11-14T08:05:43.280Z,51.77
2018-11-14T08:06:43.620Z,51.76
2018-11-14T08:07:43.407Z,51.73
2018-11-14T08:08:43.512Z,51.72
2018-11-14T08:09:43.357Z,51.75
2018-11-14T08:10:43.247Z,51.76
2018-11-14T08:11:43.328Z,51.73
2018-11-14T08:12:43.500Z,51.68
2018-11-14T08:13:43.357Z,51.67
2018-11-14T08:14:43.335Z,51.69
2018-11-14T08:15:43.283Z,51.67
2018-11-14T08:16:43.296Z,51.7
2018-11-14T08:17:43.821Z,51.64
2018-11-14T08:18:43.229Z,51.67
2018-11-14T08:19:43.595Z,51.61
2018-11-14T08:20:44.558Z,51.61
2018-11-14T08:21:43.269Z,51.65
2018-11-14T08:22:43.742Z,51.68
2018-11-14T08:23:43.375Z,51.63
2018-11-14T08:24:43.771Z,51.66
2018-11-14T08:25:43.096Z,51.62
2018-11-14T08:26:43.462Z,51.6
2018-11-14T08:27:43.354Z,51.62
2018-11-14T08:28:43.899Z,51.58
2018-11-14T08:29:43.438Z,51.6
2018-11-14T08:30:43.927Z,51.59
2018-11-14T08:31:43.194Z,51.58
2018-11-14T08:32:43.410Z,51.54
2018-11-14T08:33:43.332Z,51.55
2018-11-14T08:34:43.698Z,51.54
2018-11-14T08:35:43.337Z,51.51
2018-11-14T08:36:43.341Z,51.54
2018-11-14T08:37:43.131Z,51.55
2018-11-14T08:38:43.552Z,51.55
2018-11-14T08:39:43.360Z,51.58
2018-11-14T08:40:43.223Z,51.55
2018-11-14T08:41:43.347Z,51.6
2018-11-14T08:42:43.290Z,51.56
2018-11-14T08:43:43.293Z,51.58
2018-11-14T08:44:43.318Z,51.59
2018-11-14T08:45:43.354Z,51.57
2018-11-14T08:46:43.401Z,51.61
2018-11-14T08:47:43.514Z,51.49
2018-11-14T08:48:43.838Z,51.53
2018-11-14T08:49:43.569Z,51.51
2018-11-14T08:50:43.358Z,51.52
2018-11-14T08:51:43.411Z,51.49
2018-11-14T08:52:43.622Z,51.48
2018-11-14T08:53:43.985Z,51.48
2018-11-14T08:54:43.691Z,51.48
2018-11-14T08:55:43.244Z,51.49
2018-11-14T08:56:43.407Z,51.5
2018-11-14T08:57:43.290Z,51.51
2018-11-14T08:58:43.884Z,51.46
2018-11-14T08:59:43.210Z,51.46
2018-11-14T09:00:43.349Z,51.49
2018-11-14T09:01:43.137Z,51.44
2018-11-14T09:02:43.729Z,51.47
2018-11-14T09:03:43.428Z,51.51
2018-11-14T09:04:43.410Z,51.48
2018-11-14T09:05:43.425Z,51.52
2018-11-14T09:06:43.546Z,51.46
2018-11-14T09:07:43.531Z,51.46
2018-11-14T09:08:43.286Z,51.52
2018-11-14T09:09:43.380Z,51.49
2018-11-14T09:10:43.882Z,51.45
2018-11-14T09:11:43.226Z,51.52
2018-11-14T09:12:43.228Z,51.5
2018-11-14T09:13:43.090Z,51.49
2018-11-14T09:14:43.606Z,51.51
2018-11-14T09:15:43.307Z,51.44
2018-11-14T09:16:43.418Z,51.44
2018-11-14T09:17:43.160Z,51.46
2018-11-14T09:18:43.488Z,51.51
2018-11-14T09:19:43.181Z,51.42
2018-11-14T09:20:43.721Z,51.43
2018-11-14T09:21:43.156Z,51.46
2018-11-14T09:22:43.318Z,51.41
2018-11-14T09:23:43.451Z,51.44
2018-11-14T09:24:43.294Z,51.43
2018-11-14T09:25:43.649Z,51.49
2018-11-14T09:26:43.309Z,51.44
2018-11-14T09:27:43.296Z,51.42
2018-11-14T09:28:43.189Z,51.42
2018-11-14T09:29:43.264Z,51.48
2018-11-14T09:30:43.434Z,51.43
2018-11-14T09:31:43.082Z,51.44
2018-11-14T09:32:43.122Z,51.44
2018-11-14T09:33:43.551Z,51.46
2018-11-14T09:34:43.586Z,51.45
2018-11-14T09:35:43.554Z,51.45
2018-11-14T09:36:43.383Z,51.45
2018-11-14T09:37:43.256Z,51.4
2018-11-14T09:38:43.411Z,51.43
2018-11-14T09:39:43.248Z,51.4
2018-11-14T09:40:43.208Z,51.47
2018-11-14T09:41:43.200Z,51.41
2018-11-14T09:42:43.370Z,51.41
2018-11-14T09:43:43.733Z,51.45
2018-11-14T09:44:43.160Z,51.42
2018-11-14T09:45:43.386Z,51.42
2018-11-14T09:46:43.412Z,51.46
2018-11-14T09:47:43.651Z,51.45
2018-11-14T09:48:43.249Z,51.43
2018-11-14T09:49:43.079Z,51.42
2018-11-14T09:50:43.527Z,51.46
2018-11-14T09:51:43.712Z,51.43
2018-11-14T09:52:43.172Z,51.46
2018-11-14T09:53:43.215Z,51.43
2018-11-14T09:54:43.744Z,51.42
2018-11-14T09:55:43.444Z,51.38
2018-11-14T09:56:43.692Z,51.38
2018-11-14T09:57:43.147Z,51.46
2018-11-14T09:58:43.212Z,51.4
2018-11-14T09:59:43.092Z,51.43
2018-11-14T10:00:43.659Z,51.4
2018-11-14T10:01:43.442Z,51.45
2018-11-14T10:02:43.461Z,51.43
2018-11-14T10:03:43.316Z,51.45
2018-11-14T10:04:43.174Z,51.45
2018-11-14T10:05:43.459Z,51.43
2018-11-14T10:06:43.689Z,51.41
2018-11-14T10:07:43.134Z,51.45
2018-11-14T10:08:43.457Z,51.44
2018-11-14T10:09:43.294Z,51.37
2018-11-14T10:10:43.631Z,51.4
2018-11-14T10:11:43.568Z,51.47
2018-11-14T10:12:43.694Z,51.44
2018-11-14T10:13:43.228Z,51.4
2018-11-14T10:14:43.392Z,51.43
2018-11-14T10:15:43.777Z,51.41
2018-11-14T10:16:43.092Z,51.4
2018-11-14T10:17:43.601Z,51.46
2018-11-14T10:18:43.838Z,51.46
2018-11-14T10:19:43.241Z,51.42
2018-11-14T10:20:43.357Z,51.45
2018-11-14T10:21:43.378Z,51.41
2018-11-14T10:22:43.189Z,51.49
2018-11-14T10:23:43.314Z,51.45
2018-11-14T10:24:43.335Z,51.42
2018-11-14T10:25:43.251Z,51.47
2018-11-14T10:26:43.092Z,51.48
2018-11-14T10:27:43.386Z,51.42
2018-11-14T10:28:43.233Z,51.47
2018-11-14T10:29:43.207Z,51.46
2018-11-14T10:30:43.439Z,51.48
2018-11-14T10:31:43.553Z,51.45
2018-11-14T10:32:43.385Z,51.46
2018-11-14T10:33:43.737Z,51.49
2018-11-14T10:34:43.100Z,51.45
2018-11-14T10:35:43.251Z,51.45
2018-11-14T10:36:43.667Z,51.46
2018-11-14T10:37:43.691Z,51.42
2018-11-14T10:38:43.280Z,51.48
2018-11-14T10:39:43.607Z,51.48
2018-11-14T10:40:43.162Z,51.51
2018-11-14T10:41:43.732Z,51.51
2018-11-14T10:42:43.342Z,51.49
2018-11-14T10:43:43.083Z,51.46
2018-11-14T10:44:43.207Z,51.48
2018-11-14T10:45:43.240Z,51.51
2018-11-14T10:46:43.127Z,51.51
2018-11-14T10:47:43.160Z,51.54
2018-11-14T10:48:43.325Z,51.51
2018-11-14T10:49:43.250Z,51.49
2018-11-14T10:50:43.372Z,51.51
2018-11-14T10:51:43.163Z,51.53
2018-11-14T10:52:43.177Z,51.53
2018-11-14T10:53:43.136Z,51.51
2018-11-14T10:54:43.313Z,51.53
2018-11-14T10:55:43.132Z,51.49
2018-11-14T10:56:43.210Z,51.52
2018-11-14T10:57:43.114Z,51.49
2018-11-14T10:58:43.293Z,51.53
2018-11-14T10:59:43.401Z,51.53
2018-11-14T11:00:43.249Z,51.53
2018-11-14T11:01:43.031Z,51.54
2018-11-14T11:02:43.136Z,51.52
2018-11-14T11:03:43.331Z,51.55
2018-11-14T11:04:43.158Z,51.55
2018-11-14T11:05:43.392Z,51.56
2018-11-14T11:06:43.264Z,51.58
2018-11-14T11:07:43.476Z,51.56
2018-11-14T11:08:43.385Z,51.58
2018-11-14T11:09:43.388Z,51.59
2018-11-14T11:10:43.158Z,51.6
2018-11-14T11:11:43.194Z,51.63
2018-11-14T11:12:43.344Z,51.61
2018-11-14T11:13:43.304Z,51.61
2018-11-14T11:14:43.625Z,51.59
2018-11-14T11:15:43.568Z,51.58
2018-11-14T11:16:43.432Z,51.6
2018-11-14T11:17:43.351Z,51.57
2018-11-14T11:18:43.468Z,51.58
2018-11-14T11:19:43.078Z,51.61
2018-11-14T11:20:43.245Z,51.61
2018-11-14T11:21:43.580Z,51.6
2018-11-14T11:22:43.368Z,51.6
2018-11-14T11:23:43.193Z,51.63
2018-11-14T11:24:43.197Z,51.57
2018-11-14T11:25:43.375Z,51.59
2018-11-14T11:26:43.808Z,51.56
2018-11-14T11:27:43.201Z,51.58
2018-11-14T11:28:43.011Z,51.58
2018-11-14T11:29:43.614Z,51.6
2018-11-14T11:30:43.998Z,51.58
2018-11-14T11:31:43.231Z,51.6
2018-11-14T11:32:43.532Z,51.62
2018-11-14T11:33:43.122Z,51.6
2018-11-14T11:34:43.323Z,51.6
2018-11-14T11:35:43.181Z,51.6
2018-11-14T11:36:43.314Z,51.61
2018-11-14T11:37:43.102Z,51.62
2018-11-14T11:38:43.157Z,51.62
2018-11-14T11:39:43.699Z,51.61
2018-11-14T11:40:43.915Z,51.64
2018-11-14T11:41:43.607Z,51.64
2018-11-14T11:42:43.290Z,51.6
2018-11-14T11:43:43.602Z,51.63
2018-11-14T11:44:43.206Z,51.64
2018-11-14T11:45:43.331Z,51.57
2018-11-14T11:46:43.057Z,51.64
2018-11-14T11:47:43.401Z,51.63
2018-11-14T11:48:43.351Z,51.63
2018-11-14T11:49:43.150Z,51.66
2018-11-14T11:50:43.402Z,51.64
2018-11-14T11:51:43.138Z,51.67
2018-11-14T11:52:43.361Z,51.66
2018-11-14T11:53:43.225Z,51.68
2018-11-14T11:54:43.538Z,51.65
2018-11-14T11:55:44.250Z,51.72
2018-11-14T11:56:43.287Z,51.69
2018-11-14T11:57:43.059Z,51.61
2018-11-14T11:58:43.418Z,51.68
2018-11-14T11:59:43.708Z,51.69
2018-11-14T12:00:43.648Z,51.64
2018-11-14T12:01:43.341Z,51.7
2018-11-14T12:02:43.475Z,51.69
2018-11-14T12:03:43.493Z,51.64
2018-11-14T12:04:43.192Z,51.69
2018-11-14T12:05:43.503Z,51.68
2018-11-14T12:06:44.502Z,51.69
2018-11-14T12:07:43.510Z,51.64
2018-11-14T12:08:43.061Z,51.65
2018-11-14T12:09:43.269Z,51.71
2018-11-14T12:10:43.429Z,51.7
2018-11-14T12:11:43.139Z,51.7
2018-11-14T12:12:43.464Z,51.69
2018-11-14T12:13:43.362Z,51.7
2018-11-14T12:14:43.162Z,51.7
2018-11-14T12:15:43.070Z,51.67
2018-11-14T12:16:43.202Z,51.69
2018-11-14T12:17:43.342Z,51.67
2018-11-14T12:18:43.313Z,51.69
2018-11-14T12:19:43.261Z,51.68
2018-11-14T12:20:43.060Z,51.65
2018-11-14T12:21:43.498Z,51.7
2018-11-14T12:22:43.068Z,51.69
2018-11-14T12:23:43.748Z,51.67
2018-11-14T12:24:43.090Z,51.68
2018-11-14T12:25:43.135Z,51.71
2018-11-14T12:26:43.267Z,51.65
2018-11-14T12:27:43.624Z,51.68
2018-11-14T12:28:43.410Z,51.71
2018-11-14T12:29:43.274Z,51.7
2018-11-14T12:30:43.597Z,51.69
2018-11-14T12:31:43.285Z,51.67
2018-11-14T12:32:43.491Z,51.69
2018-11-14T12:33:43.902Z,51.67
2018-11-14T12:34:43.768Z,51.69
2018-11-14T12:35:43.670Z,51.69
2018-11-14T12:36:43.380Z,51.63
2018-11-14T12:37:43.397Z,51.59
2018-11-14T12:38:43.540Z,51.7
2018-11-14T12:39:43.765Z,51.65
2018-11-14T12:40:43.511Z,51.68
2018-11-14T12:41:43.571Z,51.7
2018-11-14T12:42:43.190Z,51.69
2018-11-14T12:43:43.645Z,51.65
2018-11-14T12:44:43.622Z,51.69
2018-11-14T12:45:43.382Z,51.63
2018-11-14T12:46:43.283Z,51.7
2018-11-14T12:47:43.295Z,51.67
2018-11-14T12:48:43.233Z,51.67
2018-11-14T12:49:43.240Z,51.68
2018-11-14T12:50:43.173Z,51.68
2018-11-14T12:51:43.511Z,51.7
2018-11-14T12:52:43.338Z,51.65
2018-11-14T12:53:43.275Z,51.68
2018-11-14T12:54:43.538Z,51.64
2018-11-14T12:55:43.240Z,51.69
2018-11-14T12:56:43.013Z,51.66